Time;durP1;ratioP1;P1;durP2;ratioP2;P2;SDS_P1;SDS_P2;PMS_P1;PMS_P2;Temp;Humidity;BMP_temperature;BMP_pressure;BME280_temperature;BME280_humidity;BME280_pressure;Samples;Min_cycle;Max_cycle;Signal;HPM_P1;HPM_P2
2021/01/02 00:00:53;;;;;;;;;;;;;;;;;;5067094;28;10174;-52
2021/01/02 00:03:37;;;;;;;;;;;;;;;;;;5074592;28;4150;-49
2021/01/02 00:06:09;;;;;;;;;;;;;;;;;;5071099;28;6984;-51
2021/01/02 00:08:38;;;;;;;;;;;;;;;;;;5068252;28;10671;-52
2021/01/02 00:11:20;;;;;;;;;;;;;;;;;;5069230;28;7544;-52
2021/01/02 00:13:45;;;;;;;;;;;;;;;;;;5060374;28;15507;-55
2021/01/02 00:16:20;;;;;;;;;;;;;;;;;;5065396;28;13669;-52
2021/01/02 00:18:55;;;;;;;;;;;;;;;;;;5069020;28;12662;-51
2021/01/02 00:21:27;;;;;;;;;;;;;;;;;;5070207;28;4206;-49
2021/01/02 00:24:08;;;;;;;;;;;;;;;;;;5064601;28;13805;-51
2021/01/02 00:26:46;;;;;;;;;;;;;;;;;;5065597;28;9337;-52
2021/01/02 00:29:18;;;;;;;;;;;;;;;;;;5068248;28;14254;-49
2021/01/02 00:31:58;;;;;;;;;;;;;;;;;;5068344;28;7339;-52
2021/01/02 00:34:26;;;;;;;;;;;;;;;;;;5069986;28;9422;-50
2021/01/02 00:36:58;;;;;;;;;;;;;;;;;;5071178;28;9484;-51
2021/01/02 00:39:44;;;;;;;;;;;;;;;;;;5070960;28;4481;-54
2021/01/02 00:42:12;;;;;;;;;;;;;;;;;;5060326;28;7449;-53
2021/01/02 00:44:40;;;;;;;;;;;;;;;;;;5067714;28;9158;-50
2021/01/02 00:47:06;;;;;;;;;;;;;;;;;;5070218;28;15660;-53
2021/01/02 00:49:32;;;;;;;;;;;;;;;;;;5070155;28;14924;-50
2021/01/02 00:52:21;;;;;;;;;;;;;;;;;;5068767;28;12959;-51
2021/01/02 00:55:06;;;;;;;;;;;;;;;;;;5051058;28;14810;-53
2021/01/02 00:57:41;;;;;;;;;;;;;;;;;;5066101;28;4139;-54
2021/01/02 01:00:07;;;;;;;;;;;;;;;;;;5066840;28;6841;-51
2021/01/02 01:02:50;;;;;;;;;;;;;;;;;;5067977;28;14822;-54
2021/01/02 01:05:23;;;;;;;;;;;;;;;;;;5068464;28;15193;-49
2021/01/02 01:07:52;;;;;;;;;;;;;;;;;;5069246;28;9188;-53
2021/01/02 01:10:20;;;;;;;;;;;;;;;;;;5068406;28;11132;-54
2021/01/02 01:12:46;;;;;;;;;;;;;;;;;;5057179;28;13180;-53
2021/01/02 01:15:12;;;;;;;;;;;;;;;;;;5070323;28;6932;-49
2021/01/02 01:17:57;;;;;;;;;;;;;;;;;;5069114;28;7619;-52
2021/01/02 01:20:24;;;;;;;;;;;;;;;;;;5058490;28;14832;-50
2021/01/02 01:23:13;;;;;;;;;;;;;;;;;;5068911;28;14104;-54
2021/01/02 01:25:45;;;;;;;;;;;;;;;;;;5026060;28;13813;-50
2021/01/02 01:28:17;;;;;;;;;;;;;;;;;;5027935;28;15573;-53
2021/01/02 01:30:43;;;;;;;;;;;;;;;;;;5026249;28;13417;-52
2021/01/02 01:33:12;;;;;;;;;;;;;;;;;;5025908;28;6972;-51
2021/01/02 01:35:44;;;;;;;;;;;;;;;;;;5010952;28;13339;-53
2021/01/02 01:38:15;;;;;;;;;;;;;;;;;;5027543;28;9458;-51
2021/01/02 01:40:42;;;;;;;;;;;;;;;;;;5015374;28;9819;-52
2021/01/02 01:43:18;;;;;;;;;;;;;;;;;;5024776;28;14820;-52
2021/01/02 01:46:03;;;;;;;;;;;;;;;;;;5029312;28;9397;-51
2021/01/02 01:48:38;;;;;;;;;;;;;;;;;;5027566;28;5958;-54
2021/01/02 01:51:22;;;;;;;;;;;;;;;;;;5024696;28;6941;-52
2021/01/02 01:54:20;;;;;;;;;;;;;;;;;;5026575;28;9670;-49
2021/01/02 01:56:49;;;;;;;;;;;;;;;;;;4984415;28;6748;-51
2021/01/02 01:59:17;;;;;;;;;;;;;;;;;;4988755;28;14793;-51
2021/01/02 02:01:47;;;;;;;;;;;;;;;;;;4986469;28;13415;-53
2021/01/02 02:04:12;;;;;;;;;;;;;;;;;;5006386;28;12895;-52
2021/01/02 02:06:55;;;;;;;;;;;;;;;;;;5006333;28;11242;-53
2021/01/02 02:09:22;;;;;;;;;;;;;;;;;;5006701;28;4698;-49
2021/01/02 02:12:16;;;;;;;;;;;;;;;;;;5005641;28;14449;-49
2021/01/02 02:14:47;;;;;;;;;;;;;;;;;;4998058;28;13762;-52
2021/01/02 02:17:16;;;;;;;;;;;;;;;;;;5004457;28;15860;-52
2021/01/02 02:19:45;;;;;;;;;;;;;;;;;;4994805;28;11845;-50
2021/01/02 02:22:14;;;;;;;;;;;;;;;;;;5004676;28;13462;-52
2021/01/02 02:24:41;;;;;;;;;;;;;;;;;;4999384;28;13295;-52
2021/01/02 02:27:10;;;;;;;;;;;;;;;;;;5006320;28;6996;-54
2021/01/02 02:29:37;;;;;;;;;;;;;;;;;;5001823;28;12325;-51
2021/01/02 02:32:06;;;;;;;;;;;;;;;;;;5020834;28;15882;-54
2021/01/02 02:34:32;;;;;;;;;;;;;;;;;;5047467;28;9824;-53
2021/01/02 02:37:00;;;;;;;;;;;;;;;;;;5046852;28;9715;-54
2021/01/02 02:39:32;;;;;;;;;;;;;;;;;;5044136;28;3974;-52
2021/01/02 02:42:01;;;;;;;;;;;;;;;;;;5046877;28;13214;-52
2021/01/02 02:44:45;;;;;;;;;;;;;;;;;;5053908;28;13965;-52
2021/01/02 02:47:16;;;;;;;;;;;;;;;;;;5060865;28;15279;-49
2021/01/02 02:49:42;;;;;;;;;;;;;;;;;;5067341;28;13006;-52
2021/01/02 02:52:14;;;;;;;;;;;;;;;;;;5067794;28;10580;-53
2021/01/02 02:54:40;;;;;;;;;;;;;;;;;;5059037;28;15811;-51
2021/01/02 02:57:07;;;;;;;;;;;;;;;;;;5075200;28;10312;-54
2021/01/02 02:59:32;;;;;;;;;;;;;;;;;;5074359;28;10337;-53
2021/01/02 03:01:57;;;;;;;;;;;;;;;;;;5069209;28;7445;-50
2021/01/02 03:04:23;;;;;;;;;;;;;;;;;;5063808;28;11592;-51
2021/01/02 03:06:51;;;;;;;;;;;;;;;;;;5069942;28;12746;-51
2021/01/02 03:09:23;;;;;;;;;;;;;;;;;;5074347;28;3991;-50
2021/01/02 03:11:48;;;;;;;;;;;;;;;;;;5074512;28;15060;-52
2021/01/02 03:14:13;;;;;;;;;;;;;;;;;;5073552;28;12352;-50
2021/01/02 03:16:46;;;;;;;;;;;;;;;;;;5054739;28;15362;-50
2021/01/02 03:19:11;;;;;;;;;;;;;;;;;;5073273;28;9417;-53
2021/01/02 03:21:39;;;;;;;;;;;;;;;;;;5071456;28;11572;-51
2021/01/02 03:24:10;;;;;;;;;;;;;;;;;;5074761;28;9748;-50
2021/01/02 03:26:35;;;;;;;;;;;;;;;;;;5072628;28;13346;-51
2021/01/02 03:29:02;;;;;;;;;;;;;;;;;;5073193;28;14116;-52
2021/01/02 03:31:30;;;;;;;;;;;;;;;;;;5073176;28;9351;-52
2021/01/02 03:33:58;;;;;;;;;;;;;;;;;;5072448;28;13344;-54
2021/01/02 03:36:23;;;;;;;;;;;;;;;;;;5075754;28;4279;-49
2021/01/02 03:38:56;;;;;;;;;;;;;;;;;;5072296;28;7670;-52
2021/01/02 03:41:22;;;;;;;;;;;;;;;;;;5076509;28;11851;-55
2021/01/02 03:43:48;;;;;;;;;;;;;;;;;;5074254;28;6761;-49
2021/01/02 03:46:17;;;;;;;;;;;;;;;;;;5073383;28;8821;-50
2021/01/02 03:48:42;;;;;;;;;;;;;;;;;;5069618;28;12299;-53
2021/01/02 03:51:08;;;;;;;;;;;;;;;;;;5077159;28;7359;-53
2021/01/02 03:53:33;;;;;;;;;;;;;;;;;;5072031;28;13702;-50
2021/01/02 03:56:04;;;;;;;;;;;;;;;;;;5074502;28;13843;-50
2021/01/02 03:58:30;;;;;;;;;;;;;;;;;;5064685;28;9534;-50
2021/01/02 04:00:55;;;;;;;;;;;;;;;;;;5069996;28;12454;-49
2021/01/02 04:03:24;;;;;;;;;;;;;;;;;;5069365;28;4014;-52
2021/01/02 04:05:52;;;;;;;;;;;;;;;;;;5064929;28;11666;-51
2021/01/02 04:08:18;;;;;;;;;;;;;;;;;;5064962;28;13781;-49
2021/01/02 04:10:43;;;;;;;;;;;;;;;;;;5069776;28;6826;-49
2021/01/02 04:13:08;;;;;;;;;;;;;;;;;;5065329;28;7703;-52
2021/01/02 04:15:37;;;;;;;;;;;;;;;;;;5070361;28;4200;-54
2021/01/02 04:18:02;;;;;;;;;;;;;;;;;;5058512;28;7172;-52
2021/01/02 04:20:31;;;;;;;;;;;;;;;;;;5071573;28;15839;-52
2021/01/02 04:22:59;;;;;;;;;;;;;;;;;;5068577;28;10581;-51
2021/01/02 04:25:24;;;;;;;;;;;;;;;;;;5069542;28;13469;-51
2021/01/02 04:27:50;;;;;;;;;;;;;;;;;;5068696;28;13759;-49
2021/01/02 04:30:16;;;;;;;;;;;;;;;;;;5069145;28;4201;-52
2021/01/02 04:32:49;;;;;;;;;;;;;;;;;;5069920;28;14229;-55
2021/01/02 04:35:14;;;;;;;;;;;;;;;;;;5069236;28;13797;-53
2021/01/02 04:37:41;;;;;;;;;;;;;;;;;;5068299;28;11234;-53
2021/01/02 04:40:07;;;;;;;;;;;;;;;;;;5066734;28;9121;-50
2021/01/02 04:42:33;;;;;;;;;;;;;;;;;;5053959;28;4044;-51
2021/01/02 04:44:59;;;;;;;;;;;;;;;;;;5069052;28;10931;-54
2021/01/02 04:47:27;;;;;;;;;;;;;;;;;;5062744;28;14677;-53
2021/01/02 04:49:53;;;;;;;;;;;;;;;;;;5069136;28;13250;-51
2021/01/02 04:52:19;;;;;;;;;;;;;;;;;;5064338;28;13878;-53
2021/01/02 04:54:56;;;;;;;;;;;;;;;;;;5069324;28;11014;-49
2021/01/02 04:57:22;;;;;;;;;;;;;;;;;;5068392;28;4143;-52
2021/01/02 04:59:50;;;;;;;;;;;;;;;;;;5058917;28;14770;-52
2021/01/02 05:02:17;;;;;;;;;;;;;;;;;;5063205;28;6820;-51
2021/01/02 05:04:44;;;;;;;;;;;;;;;;;;5068017;28;10551;-51
2021/01/02 05:07:09;;;;;;;;;;;;;;;;;;5057412;28;12185;-51
2021/01/02 05:09:34;;;;;;;;;;;;;;;;;;5070506;28;3956;-50
2021/01/02 05:12:00;;;;;;;;;;;;;;;;;;5068863;28;7517;-51
2021/01/02 05:14:25;;;;;;;;;;;;;;;;;;5065573;28;10711;-52
2021/01/02 05:16:50;;;;;;;;;;;;;;;;;;5058944;28;12746;-50
2021/01/02 05:19:16;;;;;;;;;;;;;;;;;;5053812;28;11024;-48
2021/01/02 05:21:45;;;;;;;;;;;;;;;;;;5064373;28;15693;-55
2021/01/02 05:24:19;;;;;;;;;;;;;;;;;;5069455;28;7277;-50
2021/01/02 05:26:45;;;;;;;;;;;;;;;;;;5052319;28;7799;-52
2021/01/02 05:29:15;;;;;;;;;;;;;;;;;;5061407;28;6015;-51
2021/01/02 05:31:44;;;;;;;;;;;;;;;;;;5065897;28;10234;-51
2021/01/02 05:34:10;;;;;;;;;;;;;;;;;;5055297;28;9715;-49
2021/01/02 05:36:36;;;;;;;;;;;;;;;;;;5065621;28;14347;-48
2021/01/02 05:39:03;;;;;;;;;;;;;;;;;;5067931;28;10566;-54
2021/01/02 05:41:45;;;;;;;;;;;;;;;;;;5062483;28;10825;-52
2021/01/02 05:44:10;;;;;;;;;;;;;;;;;;5061077;28;9666;-53
2021/01/02 05:46:45;;;;;;;;;;;;;;;;;;5056125;28;16822;-49
2021/01/02 05:49:46;;;;;;;;;;;;;;;;;;5062883;28;10132;-54
2021/01/02 05:52:15;;;;;;;;;;;;;;;;;;5004076;28;15565;-50
2021/01/02 05:54:46;;;;;;;;;;;;;;;;;;5006153;28;14271;-53
2021/01/02 05:57:23;;;;;;;;;;;;;;;;;;5000825;28;7063;-52
2021/01/02 05:59:51;;;;;;;;;;;;;;;;;;5002923;28;9008;-52
2021/01/02 06:02:22;;;;;;;;;;;;;;;;;;5005221;28;12174;-52
2021/01/02 06:04:57;;;;;;;;;;;;;;;;;;4995709;28;13787;-50
2021/01/02 06:07:23;;;;;;;;;;;;;;;;;;5003528;28;12888;-53
2021/01/02 06:09:51;;;;;;;;;;;;;;;;;;5005995;28;6636;-55
2021/01/02 06:12:35;;;;;;;;;;;;;;;;;;4999381;28;7093;-51
2021/01/02 06:15:07;;;;;;;;;;;;;;;;;;5005656;28;7328;-51
2021/01/02 06:17:34;;;;;;;;;;;;;;;;;;5002459;28;13789;-51
2021/01/02 06:20:01;;;;;;;;;;;;;;;;;;5006293;28;15319;-51
2021/01/02 06:22:27;;;;;;;;;;;;;;;;;;5005674;28;13417;-50
2021/01/02 06:24:53;;;;;;;;;;;;;;;;;;5005196;28;11459;-50
2021/01/02 06:27:18;;;;;;;;;;;;;;;;;;5061040;28;1155;-53
2021/01/02 06:29:48;;;;;;;;;;;;;;;;;;5064102;28;13085;-51
2021/01/02 06:32:14;;;;;;;;;;;;;;;;;;5067912;28;7534;-51
2021/01/02 06:34:39;;;;;;;;;;;;;;;;;;5058786;28;8909;-52
2021/01/02 06:37:04;;;;;;;;;;;;;;;;;;5065835;28;14682;-51
2021/01/02 06:39:31;;;;;;;;;;;;;;;;;;5066901;28;4222;-53
2021/01/02 06:41:57;;;;;;;;;;;;;;;;;;5063569;28;13757;-50
2021/01/02 06:44:42;;;;;;;;;;;;;;;;;;5063373;28;12833;-54
2021/01/02 06:47:18;;;;;;;;;;;;;;;;;;5067088;28;11137;-53
2021/01/02 06:49:43;;;;;;;;;;;;;;;;;;5071503;28;14963;-51
2021/01/02 06:52:10;;;;;;;;;;;;;;;;;;5049409;28;13652;-52
2021/01/02 06:54:36;;;;;;;;;;;;;;;;;;5067568;28;3990;-50
2021/01/02 06:57:07;;;;;;;;;;;;;;;;;;5058559;28;7356;-49
2021/01/02 06:59:36;;;;;;;;;;;;;;;;;;5061367;28;9413;-52
2021/01/02 07:02:01;;;;;;;;;;;;;;;;;;5065983;28;9314;-53
2021/01/02 07:04:38;;;;;;;;;;;;;;;;;;5049014;28;6702;-51
2021/01/02 07:07:13;;;;;;;;;;;;;;;;;;5067300;28;8849;-50
2021/01/02 07:09:41;;;;;;;;;;;;;;;;;;5067920;28;4592;-50
2021/01/02 07:12:08;;;;;;;;;;;;;;;;;;5064529;28;7091;-52
2021/01/02 07:14:33;;;;;;;;;;;;;;;;;;5064953;28;8947;-49
2021/01/02 07:17:00;;;;;;;;;;;;;;;;;;5066959;28;13884;-49
2021/01/02 07:19:31;;;;;;;;;;;;;;;;;;5054970;28;9534;-49
2021/01/02 07:22:12;;;;;;;;;;;;;;;;;;5067063;28;7542;-61
2021/01/02 07:24:50;;;;;;;;;;;;;;;;;;5062768;28;4287;-52
2021/01/02 07:27:23;;;;;;;;;;;;;;;;;;5063984;28;9952;-51
2021/01/02 07:29:50;;;;;;;;;;;;;;;;;;5065278;28;8039;-49
2021/01/02 07:32:17;;;;;;;;;;;;;;;;;;5061379;28;9451;-49
2021/01/02 07:34:47;;;;;;;;;;;;;;;;;;5066820;28;13527;-50
2021/01/02 07:37:13;;;;;;;;;;;;;;;;;;5066197;28;15736;-52
2021/01/02 07:39:39;;;;;;;;;;;;;;;;;;5068134;28;12218;-49
2021/01/02 07:42:06;;;;;;;;;;;;;;;;;;5065650;28;7354;-52
2021/01/02 07:44:32;;;;;;;;;;;;;;;;;;5057394;28;9217;-53
2021/01/02 07:46:57;;;;;;;;;;;;;;;;;;5050177;28;13963;-51
2021/01/02 07:49:22;;;;;;;;;;;;;;;;;;5047992;28;15396;-50
2021/01/02 07:51:51;;;;;;;;;;;;;;;;;;5058074;28;13769;-52
2021/01/02 07:54:28;;;;;;;;;;;;;;;;;;5052060;28;7637;-50
2021/01/02 07:56:54;;;;;;;;;;;;;;;;;;5052332;28;9392;-54
2021/01/02 07:59:24;;;;;;;;;;;;;;;;;;5052504;28;15509;-48
2021/01/02 08:01:50;;;;;;;;;;;;;;;;;;5048986;28;8891;-51
2021/01/02 08:04:16;;;;;;;;;;;;;;;;;;5047277;28;13651;-50
2021/01/02 08:06:49;;;;;;;;;;;;;;;;;;5050701;28;15610;-50
2021/01/02 08:09:25;;;;;;;;;;;;;;;;;;;;;
2021/01/02 08:12:00;;;;;;;;;;;;;;;;;;5050719;28;12690;-52
2021/01/02 08:14:31;;;;;;;;;;;;;;;;;;5049787;28;12239;-49
2021/01/02 08:17:04;;;;;;;;;;;;;;;;;;5051243;28;12833;-52
2021/01/02 08:19:30;;;;;;;;;;;;;;;;;;5048899;28;12779;-52
2021/01/02 08:21:55;;;;;;;;;;;;;;;;;;5051330;28;12397;-54
2021/01/02 08:24:21;;;;;;;;;;;;;;;;;;5052337;28;4159;-53
2021/01/02 08:26:47;;;;;;;;;;;;;;;;;;5051977;28;14139;-51
2021/01/02 08:29:13;;;;;;;;;;;;;;;;;;5051169;28;14615;-55
2021/01/02 08:31:41;;;;;;;;;;;;;;;;;;5049700;28;14428;-51
2021/01/02 08:34:13;;;;;;;;;;;;;;;;;;5041825;28;10209;-52
2021/01/02 08:36:44;;;;;;;;;;;;;;;;;;5041096;28;1139;-52
2021/01/02 08:39:17;;;;;;;;;;;;;;;;;;5049493;28;7040;-55
2021/01/02 08:41:42;;;;;;;;;;;;;;;;;;5049298;28;10460;-53
2021/01/02 08:44:08;;;;;;;;;;;;;;;;;;5051140;28;15216;-51
2021/01/02 08:46:37;;;;;;;;;;;;;;;;;;5051934;28;10111;-52
2021/01/02 08:49:03;;;;;;;;;;;;;;;;;;5048462;28;11955;-51
2021/01/02 08:51:28;;;;;;;;;;;;;;;;;;5053595;28;4298;-54
2021/01/02 08:53:53;;;;;;;;;;;;;;;;;;5051400;28;14494;-52
2021/01/02 08:56:37;;;;;;;;;;;;;;;;;;5049405;28;15036;-50
2021/01/02 08:59:10;;;;;;;;;;;;;;;;;;5041442;28;7005;-52
2021/01/02 09:01:36;;;;;;;;;;;;;;;;;;5051387;28;13890;-53
2021/01/02 09:04:13;;;;;;;;;;;;;;;;;;5051182;28;9369;-52
2021/01/02 09:06:38;;;;;;;;;;;;;;;;;;5050896;28;4160;-53
2021/01/02 09:09:08;;;;;;;;;;;;;;;;;;5049190;28;9415;-52
2021/01/02 09:11:46;;;;;;;;;;;;;;;;;;5045580;28;10008;-49
2021/01/02 09:14:11;;;;;;;;;;;;;;;;;;5049682;28;14986;-54
2021/01/02 09:16:36;;;;;;;;;;;;;;;;;;5039272;28;15832;-52
2021/01/02 09:19:01;;;;;;;;;;;;;;;;;;5049277;28;9306;-49
2021/01/02 09:21:27;;;;;;;;;;;;;;;;;;5050982;28;4215;-52
2021/01/02 09:23:53;;;;;;;;;;;;;;;;;;5045856;28;8081;-50
2021/01/02 09:26:20;;;;;;;;;;;;;;;;;;5047274;28;9935;-50
2021/01/02 09:28:46;;;;;;;;;;;;;;;;;;5048246;28;7211;-51
2021/01/02 09:31:11;;;;;;;;;;;;;;;;;;5049376;28;15967;-54
2021/01/02 09:33:36;;;;;;;;;;;;;;;;;;5050866;28;4321;-51
2021/01/02 09:36:02;;;;;;;;;;;;;;;;;;5048446;28;9848;-53
2021/01/02 09:38:27;;;;;;;;;;;;;;;;;;5046658;28;6923;-49
2021/01/02 09:40:52;;;;;;;;;;;;;;;;;;5047979;28;11585;-53
2021/01/02 09:43:18;;;;;;;;;;;;;;;;;;5022544;28;12709;-52
2021/01/02 09:45:43;;;;;;;;;;;;;;;;;;5057328;28;13821;-52
2021/01/02 09:48:09;;;;;;;;;;;;;;;;;;5047855;28;8482;-50
2021/01/02 09:50:35;;;;;;;;;;;;;;;;;;5046473;28;9067;-52
2021/01/02 09:53:01;;;;;;;;;;;;;;;;;;5050570;28;7231;-50
2021/01/02 09:55:27;;;;;;;;;;;;;;;;;;5040507;28;15556;-51
2021/01/02 09:57:52;;;;;;;;;;;;;;;;;;5047224;28;7574;-51
2021/01/02 10:00:18;;;;;;;;;;;;;;;;;;5047379;28;7542;-53
2021/01/02 10:02:44;;;;;;;;;;;;;;;;;;5046669;28;14233;-53
2021/01/02 10:05:12;;;;;;;;;;;;;;;;;;5049248;28;10911;-50
2021/01/02 10:07:37;;;;;;;;;;;;;;;;;;5048057;28;11657;-51
2021/01/02 10:10:03;;;;;;;;;;;;;;;;;;5034102;28;14463;-54
2021/01/02 10:12:28;;;;;;;;;;;;;;;;;;5045597;28;4149;-48
2021/01/02 10:14:53;;;;;;;;;;;;;;;;;;5042767;28;15319;-49
2021/01/02 10:17:19;;;;;;;;;;;;;;;;;;5043974;28;9866;-53
2021/01/02 10:19:45;;;;;;;;;;;;;;;;;;5047985;28;14100;-50
2021/01/02 10:22:11;;;;;;;;;;;;;;;;;;5054308;28;6933;-52
2021/01/02 10:24:37;;;;;;;;;;;;;;;;;;5041478;28;4181;-52
2021/01/02 10:27:03;;;;;;;;;;;;;;;;;;5046867;28;14989;-54
2021/01/02 10:29:31;;;;;;;;;;;;;;;;;;5049017;28;15901;-50
2021/01/02 10:31:58;;;;;;;;;;;;;;;;;;5032362;28;15422;-51
2021/01/02 10:34:23;;;;;;;;;;;;;;;;;;5047821;28;9619;-52
2021/01/02 10:36:48;;;;;;;;;;;;;;;;;;5043845;28;13011;-49
2021/01/02 10:39:13;;;;;;;;;;;;;;;;;;5051301;28;6935;-50
2021/01/02 10:41:39;;;;;;;;;;;;;;;;;;5044473;28;9575;-53
2021/01/02 10:44:05;;;;;;;;;;;;;;;;;;5042309;28;14373;-53
2021/01/02 10:46:30;;;;;;;;;;;;;;;;;;5051560;28;8032;-49
2021/01/02 10:48:55;;;;;;;;;;;;;;;;;;5047972;28;13517;-53
2021/01/02 10:51:21;;;;;;;;;;;;;;;;;;5042569;28;7502;-52
2021/01/02 10:53:46;;;;;;;;;;;;;;;;;;5046313;28;13354;-52
2021/01/02 10:56:13;;;;;;;;;;;;;;;;;;5044370;28;15846;-51
2021/01/02 10:58:38;;;;;;;;;;;;;;;;;;5048968;28;8207;-52
2021/01/02 11:01:05;;;;;;;;;;;;;;;;;;5049351;28;13297;-51
2021/01/02 11:03:30;;;;;;;;;;;;;;;;;;5028724;28;4288;-51
2021/01/02 11:05:57;;;;;;;;;;;;;;;;;;5046851;28;9380;-48
2021/01/02 11:08:22;;;;;;;;;;;;;;;;;;5047781;28;7412;-51
2021/01/02 11:10:47;;;;;;;;;;;;;;;;;;5047858;28;10207;-50
2021/01/02 11:13:12;;;;;;;;;;;;;;;;;;5048174;28;9323;-54
2021/01/02 11:15:38;;;;;;;;;;;;;;;;;;5045736;28;4114;-54
2021/01/02 11:18:03;;;;;;;;;;;;;;;;;;5031600;28;9548;-49
2021/01/02 11:20:28;;;;;;;;;;;;;;;;;;5051755;28;9367;-52
2021/01/02 11:22:54;;;;;;;;;;;;;;;;;;5056495;28;12593;-52
2021/01/02 11:25:19;;;;;;;;;;;;;;;;;;5054180;28;10072;-53
2021/01/02 11:27:46;;;;;;;;;;;;;;;;;;5051321;28;15877;-50
2021/01/02 11:30:11;;;;;;;;;;;;;;;;;;5046183;28;9633;-51
2021/01/02 11:32:37;;;;;;;;;;;;;;;;;;5046409;28;9872;-52
2021/01/02 11:35:02;;;;;;;;;;;;;;;;;;5053917;28;18161;-51
2021/01/02 11:37:27;;;;;;;;;;;;;;;;;;5051156;28;11883;-52
2021/01/02 11:39:52;;;;;;;;;;;;;;;;;;5042098;28;11144;-52
2021/01/02 11:42:18;;;;;;;;;;;;;;;;;;5053347;28;6993;-52
2021/01/02 11:44:43;;;;;;;;;;;;;;;;;;5064779;28;10342;-51
2021/01/02 11:47:08;;;;;;;;;;;;;;;;;;5054729;28;10660;-52
2021/01/02 11:49:35;;;;;;;;;;;;;;;;;;5052964;28;10963;-49
2021/01/02 11:52:01;;;;;;;;;;;;;;;;;;5050674;28;9385;-48
2021/01/02 11:54:29;;;;;;;;;;;;;;;;;;5036686;28;4136;-52
2021/01/02 11:56:54;;;;;;;;;;;;;;;;;;5055632;28;14442;-51
2021/01/02 11:59:20;;;;;;;;;;;;;;;;;;5051681;28;9235;-51
2021/01/02 12:01:47;;;;;;;;;;;;;;;;;;5053028;28;11435;-51
2021/01/02 12:04:15;;;;;;;;;;;;;;;;;;5052827;28;7130;-50
2021/01/02 12:06:40;;;;;;;;;;;;;;;;;;5047202;28;4138;-53
2021/01/02 12:09:06;;;;;;;;;;;;;;;;;;5050030;28;16401;-51
2021/01/02 12:11:33;;;;;;;;;;;;;;;;;;5053333;28;6631;-49
2021/01/02 12:13:58;;;;;;;;;;;;;;;;;;5051544;28;8924;-54
2021/01/02 12:16:33;;;;;;;;;;;;;;;;;;5050083;28;14931;-53
2021/01/02 12:18:58;;;;;;;;;;;;;;;;;;5049089;28;13193;-50
2021/01/02 12:21:23;;;;;;;;;;;;;;;;;;5051411;28;4453;-49
2021/01/02 12:23:49;;;;;;;;;;;;;;;;;;5052515;28;15825;-52
2021/01/02 12:26:14;;;;;;;;;;;;;;;;;;5061523;28;14754;-53
2021/01/02 12:28:39;;;;;;;;;;;;;;;;;;5046939;28;12039;-50
2021/01/02 12:31:06;;;;;;;;;;;;;;;;;;5039624;28;16005;-53
2021/01/02 12:33:31;;;;;;;;;;;;;;;;;;5048187;28;4168;-49
2021/01/02 12:35:57;;;;;;;;;;;;;;;;;;5049536;28;12649;-51
2021/01/02 12:38:24;;;;;;;;;;;;;;;;;;5050125;28;9381;-53
2021/01/02 12:40:50;;;;;;;;;;;;;;;;;;5048613;28;14455;-50
2021/01/02 12:43:15;;;;;;;;;;;;;;;;;;5052511;28;9609;-51
2021/01/02 12:45:40;;;;;;;;;;;;;;;;;;5069522;28;3955;-50
2021/01/02 12:48:15;;;;;;;;;;;;;;;;;;5066660;28;13099;-50
2021/01/02 12:50:40;;;;;;;;;;;;;;;;;;5067622;28;8900;-52
2021/01/02 12:53:05;;;;;;;;;;;;;;;;;;5068035;28;16455;-51
2021/01/02 12:55:31;;;;;;;;;;;;;;;;;;5068851;28;8920;-51
2021/01/02 12:57:56;;;;;;;;;;;;;;;;;;5068317;28;12797;-53
2021/01/02 13:00:21;;;;;;;;;;;;;;;;;;5068066;28;6988;-53
2021/01/02 13:02:47;;;;;;;;;;;;;;;;;;5065577;28;12586;-53
2021/01/02 13:05:12;;;;;;;;;;;;;;;;;;5063865;28;15277;-49
2021/01/02 13:07:37;;;;;;;;;;;;;;;;;;5067961;28;9264;-50
2021/01/02 13:10:03;;;;;;;;;;;;;;;;;;5068721;28;13986;-53
2021/01/02 13:12:28;;;;;;;;;;;;;;;;;;5071153;28;4213;-52
2021/01/02 13:14:53;;;;;;;;;;;;;;;;;;5061159;28;14804;-50
2021/01/02 13:17:19;;;;;;;;;;;;;;;;;;5061377;28;7881;-51
2021/01/02 13:19:45;;;;;;;;;;;;;;;;;;5063413;28;8244;-49
2021/01/02 13:22:11;;;;;;;;;;;;;;;;;;5067185;28;12085;-50
2021/01/02 13:24:38;;;;;;;;;;;;;;;;;;5069329;28;4233;-52
2021/01/02 13:27:04;;;;;;;;;;;;;;;;;;5068179;28;15506;-51
2021/01/02 13:29:32;;;;;;;;;;;;;;;;;;5066484;28;14714;-52
2021/01/02 13:32:01;;;;;;;;;;;;;;;;;;5069407;28;15279;-50
2021/01/02 13:34:27;;;;;;;;;;;;;;;;;;5058172;28;9741;-48
2021/01/02 13:36:53;;;;;;;;;;;;;;;;;;5065783;28;14891;-52
2021/01/02 13:39:20;;;;;;;;;;;;;;;;;;5065845;28;7064;-52
2021/01/02 13:41:45;;;;;;;;;;;;;;;;;;5067843;28;15062;-49
2021/01/02 13:44:12;;;;;;;;;;;;;;;;;;5067293;28;13996;-49
2021/01/02 13:46:37;;;;;;;;;;;;;;;;;;5060464;28;9451;-49
2021/01/02 13:49:03;;;;;;;;;;;;;;;;;;5062438;28;14129;-50
2021/01/02 13:51:28;;;;;;;;;;;;;;;;;;5062761;28;3853;-52
2021/01/02 13:53:54;;;;;;;;;;;;;;;;;;5066456;28;14144;-51
2021/01/02 13:56:19;;;;;;;;;;;;;;;;;;5066131;28;11020;-53
2021/01/02 13:58:48;;;;;;;;;;;;;;;;;;5064433;28;13133;-52
2021/01/02 14:01:15;;;;;;;;;;;;;;;;;;5067352;28;13291;-53
2021/01/02 14:03:40;;;;;;;;;;;;;;;;;;5067376;28;4126;-51
2021/01/02 14:06:09;;;;;;;;;;;;;;;;;;5063040;28;8328;-49
2021/01/02 14:08:34;;;;;;;;;;;;;;;;;;5065197;28;6977;-53
2021/01/02 14:10:59;;;;;;;;;;;;;;;;;;5067322;28;15619;-51
2021/01/02 14:13:25;;;;;;;;;;;;;;;;;;5057346;28;13036;-53
2021/01/02 14:15:50;;;;;;;;;;;;;;;;;;5049272;28;13991;-53
2021/01/02 14:18:15;;;;;;;;;;;;;;;;;;5060200;28;9123;-50
2021/01/02 14:20:41;;;;;;;;;;;;;;;;;;5063697;28;12805;-53
2021/01/02 14:23:06;;;;;;;;;;;;;;;;;;5067355;28;9327;-51
2021/01/02 14:25:32;;;;;;;;;;;;;;;;;;5066999;28;13366;-51
2021/01/02 14:27:57;;;;;;;;;;;;;;;;;;5064862;28;15845;-51
2021/01/02 14:30:22;;;;;;;;;;;;;;;;;;5064387;28;7000;-51
2021/01/02 14:32:48;;;;;;;;;;;;;;;;;;5065035;28;15673;-50
2021/01/02 14:35:13;;;;;;;;;;;;;;;;;;5064819;28;6995;-53
2021/01/02 14:37:38;;;;;;;;;;;;;;;;;;5066418;28;11571;-51
2021/01/02 14:40:04;;;;;;;;;;;;;;;;;;5063060;28;8683;-51
2021/01/02 14:42:30;;;;;;;;;;;;;;;;;;5069776;28;4119;-53
2021/01/02 14:44:55;;;;;;;;;;;;;;;;;;5062631;28;8206;-54
2021/01/02 14:47:21;;;;;;;;;;;;;;;;;;5064953;28;12858;-50
2021/01/02 14:49:46;;;;;;;;;;;;;;;;;;5064815;28;9345;-51
2021/01/02 14:52:11;;;;;;;;;;;;;;;;;;5062979;28;9174;-48
2021/01/02 14:54:37;;;;;;;;;;;;;;;;;;5069362;28;4264;-54
2021/01/02 14:57:03;;;;;;;;;;;;;;;;;;5066909;28;12670;-52
2021/01/02 14:59:29;;;;;;;;;;;;;;;;;;5061137;28;14389;-52
2021/01/02 15:01:55;;;;;;;;;;;;;;;;;;5067286;28;14294;-53
2021/01/02 15:04:20;;;;;;;;;;;;;;;;;;5066784;28;12899;-54
2021/01/02 15:06:48;;;;;;;;;;;;;;;;;;5068561;28;4169;-53
2021/01/02 15:09:14;;;;;;;;;;;;;;;;;;5067116;28;10011;-54
2021/01/02 15:11:39;;;;;;;;;;;;;;;;;;5064140;28;9107;-51
2021/01/02 15:14:04;;;;;;;;;;;;;;;;;;5064220;28;8507;-51
2021/01/02 15:16:31;;;;;;;;;;;;;;;;;;5066498;28;14504;-52
2021/01/02 15:18:57;;;;;;;;;;;;;;;;;;5067424;28;7691;-52
2021/01/02 15:21:23;;;;;;;;;;;;;;;;;;5065285;28;6960;-49
2021/01/02 15:23:49;;;;;;;;;;;;;;;;;;5066588;28;13370;-50
2021/01/02 15:26:15;;;;;;;;;;;;;;;;;;5065837;28;9040;-51
2021/01/02 15:28:40;;;;;;;;;;;;;;;;;;5065840;28;6668;-51
2021/01/02 15:31:06;;;;;;;;;;;;;;;;;;5064204;28;11084;-52
2021/01/02 15:33:31;;;;;;;;;;;;;;;;;;5065947;28;3925;-49
2021/01/02 15:35:56;;;;;;;;;;;;;;;;;;5065115;28;15480;-52
2021/01/02 15:38:22;;;;;;;;;;;;;;;;;;5067125;28;6706;-53
2021/01/02 15:40:52;;;;;;;;;;;;;;;;;;5065716;28;14083;-50
2021/01/02 15:43:17;;;;;;;;;;;;;;;;;;5051084;28;9204;-54
2021/01/02 15:45:43;;;;;;;;;;;;;;;;;;5054723;28;4145;-52
2021/01/02 15:48:08;;;;;;;;;;;;;;;;;;5059839;28;10580;-53
2021/01/02 15:50:33;;;;;;;;;;;;;;;;;;5059171;28;12422;-53
2021/01/02 15:52:58;;;;;;;;;;;;;;;;;;5064683;28;11099;-53
2021/01/02 15:55:24;;;;;;;;;;;;;;;;;;5065053;28;14255;-50
2021/01/02 15:57:49;;;;;;;;;;;;;;;;;;5066537;28;6612;-49
2021/01/02 16:00:14;;;;;;;;;;;;;;;;;;5066621;28;9619;-50
2021/01/02 16:02:40;;;;;;;;;;;;;;;;;;5069278;28;13255;-51
2021/01/02 16:05:05;;;;;;;;;;;;;;;;;;5069457;28;12416;-49
2021/01/02 16:07:32;;;;;;;;;;;;;;;;;;5058923;28;7950;-53
2021/01/02 16:09:57;;;;;;;;;;;;;;;;;;5065291;28;16365;-49
2021/01/02 16:12:23;;;;;;;;;;;;;;;;;;5066608;28;8496;-52
2021/01/02 16:14:49;;;;;;;;;;;;;;;;;;5068970;28;8148;-50
2021/01/02 16:17:14;;;;;;;;;;;;;;;;;;5070389;28;13963;-50
2021/01/02 16:19:40;;;;;;;;;;;;;;;;;;5068895;28;15054;-51
2021/01/02 16:22:06;;;;;;;;;;;;;;;;;;5069127;28;15761;-51
2021/01/02 16:24:34;;;;;;;;;;;;;;;;;;5071039;28;4185;-52
2021/01/02 16:27:02;;;;;;;;;;;;;;;;;;5069125;28;12868;-53
2021/01/02 16:29:29;;;;;;;;;;;;;;;;;;5050893;28;13568;-49
2021/01/02 16:32:04;;;;;;;;;;;;;;;;;;5068528;28;9389;-51
2021/01/02 16:34:36;;;;;;;;;;;;;;;;;;5069731;28;15296;-50
2021/01/02 16:37:03;;;;;;;;;;;;;;;;;;5059890;28;7390;-54
2021/01/02 16:39:29;;;;;;;;;;;;;;;;;;5069683;28;4430;-49
2021/01/02 16:41:58;;;;;;;;;;;;;;;;;;5062918;28;13195;-50
2021/01/02 16:44:24;;;;;;;;;;;;;;;;;;5064826;28;15014;-52
2021/01/02 16:46:49;;;;;;;;;;;;;;;;;;5068852;28;14692;-50
2021/01/02 16:49:14;;;;;;;;;;;;;;;;;;5058252;28;15025;-49
2021/01/02 16:51:40;;;;;;;;;;;;;;;;;;5070865;28;4180;-51
2021/01/02 16:54:07;;;;;;;;;;;;;;;;;;5062310;28;9479;-52
2021/01/02 16:56:32;;;;;;;;;;;;;;;;;;5063179;28;9407;-50
2021/01/02 16:58:58;;;;;;;;;;;;;;;;;;5057930;28;14091;-51